Time;durP1;ratioP1;P1;durP2;ratioP2;P2;SDS_P1;SDS_P2;PMS_P1;PMS_P2;Temp;Humidity;BMP_temperature;BMP_pressure;BME280_temperature;BME280_humidity;BME280_pressure;Samples;Min_cycle;Max_cycle;Signal;HPM_P1;HPM_P2
2023/09/26 00:00:34;;;;;;;;;;;;;;;28.11;42.53;94782.44;5042684;28;9100;-62
2023/09/26 00:03:00;;;;;;;;;;;;;;;28.09;42.18;94776.66;5044402;28;8795;-62
2023/09/26 00:05:32;;;;;;;;;;;;;;;28.09;41.77;94776.66;5037340;28;7350;-62
2023/09/26 00:08:05;;;;;;;;;;;;;;;28.10;42.02;94780.19;5047244;28;9452;-62
2023/09/26 00:10:38;;;;;;;;;;;;;;;28.10;41.94;94777.44;5041330;28;7316;-61
2023/09/26 00:13:09;;;;;;;;;;;;;;;28.10;41.66;94777.44;5043520;28;7180;-61
2023/09/26 00:15:39;;;;;;;;;;;;;;;28.09;41.95;94773.16;5054557;28;6976;-62
2023/09/26 00:18:17;;;;;;;;;;;;;;;28.08;42.40;94768.88;5045754;28;6973;-61
2023/09/26 00:20:44;;;;;;;;;;;;;;;28.03;42.07;94766.94;5050238;28;7299;-62
2023/09/26 00:23:11;;;;;;;;;;;;;;;28.05;42.23;94778.97;5029132;28;8941;-62
2023/09/26 00:25:38;;;;;;;;;;;;;;;28.06;41.95;94777.69;5051807;28;8184;-62
2023/09/26 00:28:04;;;;;;;;;;;;;;;28.04;42.09;94774.69;5055857;28;9003;-62
2023/09/26 00:30:30;;;;;;;;;;;;;;;28.05;41.90;94769.94;5047825;28;7069;-62
2023/09/26 00:32:57;;;;;;;;;;;;;;;28.06;42.13;94777.69;5068250;28;7973;-61
2023/09/26 00:35:24;;;;;;;;;;;;;;;28.03;41.93;94776.00;5044887;28;9071;-61
2023/09/26 00:37:56;;;;;;;;;;;;;;;28.04;42.17;94773.94;5050509;28;7290;-60
2023/09/26 00:40:38;;;;;;;;;;;;;;;28.04;41.97;94780.22;5056060;28;7218;-61
2023/09/26 00:43:25;;;;;;;;;;;;;;;28.04;42.16;94780.22;5051169;28;7003;-61
2023/09/26 00:46:11;;;;;;;;;;;;;;;28.03;41.43;94776.00;5058286;28;7583;-60
2023/09/26 00:48:48;;;;;;;;;;;;;;;28.03;41.98;94783.53;5036971;28;7236;-61
2023/09/26 00:51:22;;;;;;;;;;;;;;;28.02;41.91;94779.25;5041987;28;8232;-60
2023/09/26 00:54:23;;;;;;;;;;;;;;;28.02;41.58;94782.00;5077663;28;6995;-61
2023/09/26 00:56:50;;;;;;;;;;;;;;;28.01;42.37;94783.28;4963353;28;7333;-60
2023/09/26 00:59:20;;;;;;;;;;;;;;;28.00;41.96;94782.53;4973519;28;7333;-60
2023/09/26 01:02:08;;;;;;;;;;;;;;;27.99;41.61;94789.31;4963448;28;7151;-61
2023/09/26 01:04:38;;;;;;;;;;;;;;;27.96;41.76;94779.28;4970033;28;7250;-61
2023/09/26 01:07:14;;;;;;;;;;;;;;;27.96;41.87;94784.06;4988791;28;9454;-61
2023/09/26 01:09:50;;;;;;;;;;;;;;;27.97;41.63;94782.81;4988930;28;9111;-61
2023/09/26 01:12:50;;;;;;;;;;;;;;;27.97;41.93;94780.78;4978829;28;7268;-61
2023/09/26 01:15:38;;;;;;;;;;;;;;;27.95;42.03;94783.31;4927329;28;7241;-61
2023/09/26 01:18:30;;;;;;;;;;;;;;;27.94;41.79;94781.06;4933009;29;7031;-61
2023/09/26 01:20:56;;;;;;;;;;;;;;;27.91;41.87;94773.78;4949633;28;7225;-61
2023/09/26 01:23:42;;;;;;;;;;;;;;;27.92;41.71;94778.06;4927068;29;7488;-61
2023/09/26 01:26:08;;;;;;;;;;;;;;;27.92;41.97;94780.84;4928372;29;6856;-61
2023/09/26 01:28:36;;;;;;;;;;;;;;;27.88;41.86;94766.56;4950898;28;7232;-61
2023/09/26 01:31:24;;;;;;;;;;;;;;;27.88;42.19;94767.31;4993363;28;7058;-61
2023/09/26 01:34:06;;;;;;;;;;;;;;;27.90;42.04;94770.31;4998730;28;7000;-60
2023/09/26 01:37:04;;;;;;;;;;;;;;;27.88;41.97;94772.06;5009713;28;7216;-61
2023/09/26 01:39:43;;;;;;;;;;;;;;;27.86;42.21;94763.56;4971743;28;7219;-61
2023/09/26 01:42:17;;;;;;;;;;;;;;;27.86;42.00;94767.03;4963017;28;8813;-60
2023/09/26 01:45:29;;;;;;;;;;;;;;;27.87;42.23;94773.34;4952697;28;7338;-52
2023/09/26 01:48:05;;;;;;;;;;;;;;;27.88;41.95;94774.84;4928800;29;8521;-53
2023/09/26 01:50:35;;;;;;;;;;;;;;;27.87;42.12;94776.09;4938409;28;7182;-52
2023/09/26 01:53:32;;;;;;;;;;;;;;;27.87;41.73;94784.38;4955212;28;7344;-54
2023/09/26 01:56:13;;;;;;;;;;;;;;;27.87;42.24;94781.63;4916526;29;7188;-53
2023/09/26 01:58:49;;;;;;;;;;;;;;;27.84;41.82;94782.69;4915266;29;7247;-54
2023/09/26 02:01:17;;;;;;;;;;;;;;;27.86;42.01;94780.16;4929511;29;7237;-54
2023/09/26 02:04:27;;;;;;;;;;;;;;;27.85;41.77;94781.41;4931474;29;7398;-55
2023/09/26 02:07:07;;;;;;;;;;;;;;;27.82;42.10;94780.41;4908992;29;7313;-53
2023/09/26 02:10:09;;;;;;;;;;;;;;;27.83;41.80;94783.94;4914235;29;6998;-54
2023/09/26 02:12:42;;;;;;;;;;;;;;;27.82;42.23;94788.69;4929856;29;7196;-54
2023/09/26 02:15:18;;;;;;;;;;;;;;;27.83;42.33;94783.94;4916157;29;7415;-54
2023/09/26 02:18:13;;;;;;;;;;;;;;;27.83;42.25;94787.44;4942546;29;6991;-54
2023/09/26 02:20:41;;;;;;;;;;;;;;;27.79;42.17;94784.22;4935887;29;7252;-53
2023/09/26 02:23:13;;;;;;;;;;;;;;;27.82;41.86;94788.69;4929292;29;7486;-54
2023/09/26 02:25:39;;;;;;;;;;;;;;;27.81;42.37;94789.22;4982684;28;8719;-53
2023/09/26 02:28:06;;;;;;;;;;;;;;;27.80;42.03;94779.41;5009726;28;7251;-53
2023/09/26 02:30:32;;;;;;;;;;;;;;;27.77;42.09;94784.00;4993507;28;7307;-53
2023/09/26 02:33:05;;;;;;;;;;;;;;;27.79;42.37;94780.69;5031420;28;7199;-53
2023/09/26 02:35:32;;;;;;;;;;;;;;;27.80;42.17;94773.91;5073772;28;6997;-53
2023/09/26 02:38:08;;;;;;;;;;;;;;;27.79;42.20;94769.66;5078499;28;7044;-54
2023/09/26 02:40:34;;;;;;;;;;;;;;;27.81;42.12;94772.63;5069004;28;7975;-54
2023/09/26 02:43:02;;;;;;;;;;;;;;;27.76;42.14;94762.38;5085341;28;7411;-53
2023/09/26 02:45:30;;;;;;;;;;;;;;;27.73;42.05;94766.91;5032125;28;8656;-54
2023/09/26 02:47:58;;;;;;;;;;;;;;;27.73;42.20;94766.19;5045638;28;7391;-53
2023/09/26 02:50:25;;;;;;;;;;;;;;;27.75;41.81;94760.88;5053708;28;9161;-53
2023/09/26 02:52:52;;;;;;;;;;;;;;;27.74;42.25;94762.16;5042405;28;7077;-59
2023/09/26 02:55:20;;;;;;;;;;;;;;;27.75;41.56;94758.13;5045086;28;9453;-61
2023/09/26 02:57:45;;;;;;;;;;;;;;;27.73;42.12;94755.13;5047445;28;7520;-61
2023/09/26 03:00:16;;;;;;;;;;;;;;;27.74;41.45;94759.38;5047686;28;7451;-61
2023/09/26 03:02:46;;;;;;;;;;;;;;;27.71;42.29;94763.91;5073801;28;7239;-60
2023/09/26 03:05:15;;;;;;;;;;;;;;;27.70;41.89;94754.16;5048387;28;7064;-61
2023/09/26 03:07:42;;;;;;;;;;;;;;;27.67;42.30;94746.88;5063526;28;8818;-61
2023/09/26 03:10:10;;;;;;;;;;;;;;;27.67;42.07;94744.13;5043843;28;8097;-61
2023/09/26 03:12:37;;;;;;;;;;;;;;;27.64;42.33;94743.13;5059920;28;7492;-61
2023/09/26 03:15:08;;;;;;;;;;;;;;;27.68;42.11;94750.41;5052282;28;7317;-61
2023/09/26 03:17:41;;;;;;;;;;;;;;;27.69;42.45;94744.34;5055172;28;7250;-61
2023/09/26 03:20:19;;;;;;;;;;;;;;;27.71;41.89;94741.09;5049252;28;7287;-60
2023/09/26 03:22:46;;;;;;;;;;;;;;;27.70;42.06;94739.56;5041082;28;7073;-61
2023/09/26 03:25:13;;;;;;;;;;;;;;;27.70;41.97;94734.03;5045022;28;7033;-60
2023/09/26 03:28:08;;;;;;;;;;;;;;;27.70;42.19;94745.84;5057773;28;7206;-60
2023/09/26 03:30:36;;;;;;;;;;;;;;;27.68;42.30;94736.56;5070107;28;7232;-61
2023/09/26 03:33:04;;;;;;;;;;;;;;;27.68;41.93;94742.09;5044987;28;8850;-60
2023/09/26 03:35:32;;;;;;;;;;;;;;;27.68;41.96;94747.63;5039901;28;8785;-60
2023/09/26 03:38:02;;;;;;;;;;;;;;;27.66;42.48;94742.63;5046233;28;7189;-60
2023/09/26 03:41:26;;;;;;;;;;;;;;;27.67;42.21;94740.59;5076360;28;8816;-61
2023/09/26 03:43:52;;;;;;;;;;;;;;;27.68;42.21;94742.09;5055911;28;8190;-60
2023/09/26 03:46:32;;;;;;;;;;;;;;;27.66;42.18;94753.69;5076037;28;7020;-61
2023/09/26 03:48:58;;;;;;;;;;;;;;;27.66;41.65;94742.63;5037033;28;9068;-61
2023/09/26 03:51:24;;;;;;;;;;;;;;;27.66;42.20;94750.91;5053521;28;7261;-60
2023/09/26 03:53:52;;;;;;;;;;;;;;;27.66;42.24;94741.88;5053884;28;9173;-60
2023/09/26 03:56:18;;;;;;;;;;;;;;;27.64;41.95;94753.44;5041039;28;8832;-60
2023/09/26 03:58:45;;;;;;;;;;;;;;;27.62;42.02;94755.97;5043247;28;7241;-60
2023/09/26 04:01:16;;;;;;;;;;;;;;;27.62;42.23;94755.97;5059903;28;7071;-61
2023/09/26 04:03:48;;;;;;;;;;;;;;;27.61;42.40;94749.69;5042518;28;8452;-61
2023/09/26 04:06:16;;;;;;;;;;;;;;;27.61;42.33;94740.66;5040233;28;7240;-60
2023/09/26 04:08:52;;;;;;;;;;;;;;;27.59;41.92;94735.66;5057846;28;7272;-60
2023/09/26 04:11:20;;;;;;;;;;;;;;;27.61;42.28;94744.19;5045216;28;9103;-60
2023/09/26 04:13:48;;;;;;;;;;;;;;;27.60;42.13;94730.84;5037509;28;7487;-60
2023/09/26 04:16:15;;;;;;;;;;;;;;;27.62;42.15;94736.63;5056475;28;7961;-60
2023/09/26 04:18:44;;;;;;;;;;;;;;;27.61;42.00;94733.13;5037662;28;7291;-60
2023/09/26 04:21:10;;;;;;;;;;;;;;;27.60;41.95;94736.38;5036479;28;7147;-60
2023/09/26 04:23:50;;;;;;;;;;;;;;;27.59;42.21;94732.88;5039192;28;8759;-60
2023/09/26 04:26:50;;;;;;;;;;;;;;;27.61;42.00;94737.88;5038029;28;8792;-60
2023/09/26 04:29:24;;;;;;;;;;;;;;;27.57;42.14;94731.91;5012128;28;7321;-60
2023/09/26 04:32:11;;;;;;;;;;;;;;;27.58;41.94;94733.38;5019302;28;7337;-60
2023/09/26 04:35:03;;;;;;;;;;;;;;;27.57;42.31;94732.66;5009900;28;8570;-60
2023/09/26 04:37:30;;;;;;;;;;;;;;;27.58;42.23;94730.63;5012869;28;7167;-60
2023/09/26 04:40:10;;;;;;;;;;;;;;;27.59;41.74;94732.13;5017526;28;7231;-60
2023/09/26 04:42:52;;;;;;;;;;;;;;;27.57;42.03;94731.91;4994575;28;7601;-60
2023/09/26 04:45:29;;;;;;;;;;;;;;;27.57;42.28;94732.66;5010399;28;7087;-60
2023/09/26 04:48:04;;;;;;;;;;;;;;;27.57;42.15;94732.66;4987563;28;7373;-60
2023/09/26 04:50:31;;;;;;;;;;;;;;;27.58;41.94;94739.66;4993385;28;7423;-60
2023/09/26 04:52:58;;;;;;;;;;;;;;;27.57;41.81;94737.44;5009903;28;7025;-60
2023/09/26 04:55:38;;;;;;;;;;;;;;;27.56;41.91;94742.19;5014196;28;7317;-61
2023/09/26 04:58:06;;;;;;;;;;;;;;;27.54;42.29;94739.19;5016979;28;7024;-60
2023/09/26 05:00:35;;;;;;;;;;;;;;;27.55;41.81;94740.72;5009816;28;8705;-60
2023/09/26 05:03:02;;;;;;;;;;;;;;;27.57;41.99;94742.94;5012266;28;7007;-60
2023/09/26 05:05:29;;;;;;;;;;;;;;;27.55;42.38;94745.50;5020019;28;7239;-60
2023/09/26 05:08:01;;;;;;;;;;;;;;;27.55;42.15;94743.47;5055167;28;7628;-61
2023/09/26 05:10:29;;;;;;;;;;;;;;;27.55;42.26;94746.25;5057785;28;7235;-60
2023/09/26 05:13:06;;;;;;;;;;;;;;;27.54;42.16;94750.25;5051913;28;7247;-62
2023/09/26 05:15:38;;;;;;;;;;;;;;;27.51;42.32;94748.50;5047641;28;7047;-63
2023/09/26 05:18:18;;;;;;;;;;;;;;;27.51;42.22;94739.50;5040362;28;7491;-62
2023/09/26 05:20:46;;;;;;;;;;;;;;;27.54;42.58;94749.50;5048680;28;7169;-63
2023/09/26 05:23:18;;;;;;;;;;;;;;;27.52;42.68;94752.78;5044353;28;9176;-62
2023/09/26 05:25:53;;;;;;;;;;;;;;;27.50;42.51;94749.78;5026997;28;7304;-62
2023/09/26 05:28:21;;;;;;;;;;;;;;;27.50;42.48;94752.56;5047120;28;9084;-62
2023/09/26 05:30:54;;;;;;;;;;;;;;;27.48;42.40;94754.31;5051633;28;8934;-62
2023/09/26 05:33:20;;;;;;;;;;;;;;;27.45;42.15;94761.63;5071218;28;7267;-63
2023/09/26 05:36:08;;;;;;;;;;;;;;;27.40;42.60;94750.63;5037117;28;7061;-63
2023/09/26 05:38:47;;;;;;;;;;;;;;;27.39;42.32;94760.16;5047124;28;8731;-62
2023/09/26 05:41:14;;;;;;;;;;;;;;;27.35;42.35;94754.16;5057222;28;7021;-63
2023/09/26 05:44:00;;;;;;;;;;;;;;;27.36;42.49;94758.47;5046058;28;7165;-63
2023/09/26 05:46:35;;;;;;;;;;;;;;;27.36;42.70;94761.94;5039880;28;7352;-62
2023/09/26 05:49:11;;;;;;;;;;;;;;;27.40;42.50;94761.69;5039677;28;9415;-63
2023/09/26 05:51:38;;;;;;;;;;;;;;;27.37;42.19;94759.94;5043022;28;9225;-62
2023/09/26 05:54:07;;;;;;;;;;;;;;;27.35;41.93;94763.22;5039420;28;7128;-62
2023/09/26 05:56:40;;;;;;;;;;;;;;;27.36;42.23;94766.75;5078675;28;7171;-62
2023/09/26 05:59:27;;;;;;;;;;;;;;;27.36;42.11;94778.53;5046114;28;9204;-62
2023/09/26 06:02:32;;;;;;;;;;;;;;;27.35;41.95;94771.50;5043876;28;7077;-62
2023/09/26 06:05:24;;;;;;;;;;;;;;;27.35;42.24;94776.25;5082155;28;9147;-62
2023/09/26 06:08:01;;;;;;;;;;;;;;;27.31;42.33;94778.53;5037837;28;7246;-62
2023/09/26 06:11:00;;;;;;;;;;;;;;;27.33;42.27;94778.78;5052495;28;7323;-62
2023/09/26 06:13:42;;;;;;;;;;;;;;;27.31;41.93;94776.53;5024313;28;8797;-62
2023/09/26 06:16:21;;;;;;;;;;;;;;;27.32;41.63;94780.78;5027272;28;9190;-62
2023/09/26 06:19:06;;;;;;;;;;;;;;;27.31;42.22;94776.53;5012257;28;7178;-63
2023/09/26 06:21:32;;;;;;;;;;;;;;;27.33;42.35;94782.28;5011930;28;7279;-62
2023/09/26 06:24:19;;;;;;;;;;;;;;;27.33;42.31;94787.06;5008774;28;9422;-62
2023/09/26 06:26:58;;;;;;;;;;;;;;;27.33;42.59;94785.06;5025045;28;7080;-62
2023/09/26 06:29:28;;;;;;;;;;;;;;;27.31;42.31;94784.81;5006264;28;9044;-62
2023/09/26 06:31:54;;;;;;;;;;;;;;;27.34;42.35;94783.06;5011456;28;6881;-62
2023/09/26 06:34:22;;;;;;;;;;;;;;;27.33;42.23;94781.53;5025915;28;7266;-62
2023/09/26 06:36:52;;;;;;;;;;;;;;;27.31;42.53;94782.06;5009798;28;7183;-62
2023/09/26 06:39:18;;;;;;;;;;;;;;;27.33;42.49;94787.06;5015577;28;7209;-62
2023/09/26 06:41:44;;;;;;;;;;;;;;;27.29;42.40;94787.34;4988796;28;9164;-62
2023/09/26 06:44:10;;;;;;;;;;;;;;;27.32;42.42;94786.31;5004522;28;9272;-62
2023/09/26 06:46:58;;;;;;;;;;;;;;;27.31;42.15;94782.06;5009652;28;7274;-62
2023/09/26 06:49:26;;;;;;;;;;;;;;;27.32;42.38;94778.03;5016208;28;7142;-62
2023/09/26 06:52:15;;;;;;;;;;;;;;;27.32;42.75;94780.03;5079878;28;7192;-62
2023/09/26 06:54:59;;;;;;;;;;;;;;;27.29;42.41;94781.06;5051870;28;7733;-62
2023/09/26 06:57:27;;;;;;;;;;;;;;;27.30;42.48;94780.53;5057429;28;7475;-62
2023/09/26 07:00:00;;;;;;;;;;;;;;;27.31;42.36;94784.06;5057170;28;9015;-62
2023/09/26 07:02:30;;;;;;;;;;;;;;;27.31;42.59;94782.06;5040641;28;7225;-62
2023/09/26 07:04:56;;;;;;;;;;;;;;;27.32;42.30;94785.56;5049929;28;8859;-62
2023/09/26 07:07:24;;;;;;;;;;;;;;;27.32;42.76;94780.03;5046937;28;7242;-62
2023/09/26 07:09:55;;;;;;;;;;;;;;;27.28;42.45;94777.56;5041399;28;9129;-63
2023/09/26 07:12:28;;;;;;;;;;;;;;;27.32;41.91;94785.56;5051721;28;7535;-63
2023/09/26 07:14:56;;;;;;;;;;;;;;;27.31;42.59;94781.31;5039852;28;7285;-63
2023/09/26 07:17:25;;;;;;;;;;;;;;;27.31;42.14;94787.59;5059312;28;7318;-63
2023/09/26 07:20:07;;;;;;;;;;;;;;;27.32;42.38;94791.84;5077655;28;7218;-63
2023/09/26 07:22:34;;;;;;;;;;;;;;;27.28;42.21;94776.78;5052931;28;9154;-63
2023/09/26 07:25:04;;;;;;;;;;;;;;;27.30;42.54;94788.84;5043295;28;6991;-63
2023/09/26 07:27:32;;;;;;;;;;;;;;;27.33;42.64;94787.06;5053952;28;9371;-63
2023/09/26 07:30:00;;;;;;;;;;;;;;;27.29;42.12;94784.59;5055131;28;7612;-62
2023/09/26 07:32:30;;;;;;;;;;;;;;;27.32;42.68;94783.53;5068024;28;6987;-62
2023/09/26 07:34:59;;;;;;;;;;;;;;;27.33;42.72;94795.34;5048159;28;8895;-61
2023/09/26 07:37:32;;;;;;;;;;;;;;;27.32;42.49;94789.06;5044490;28;9266;-60
2023/09/26 07:40:29;;;;;;;;;;;;;;;27.32;42.58;94788.31;5055982;28;9069;-60
2023/09/26 07:42:59;;;;;;;;;;;;;;;27.33;42.37;94785.06;5000413;28;7239;-60
2023/09/26 07:45:38;;;;;;;;;;;;;;;27.36;42.35;94786.06;5012374;28;7001;-60
2023/09/26 07:48:17;;;;;;;;;;;;;;;27.36;41.97;94795.09;5009718;28;9091;-60
2023/09/26 07:50:51;;;;;;;;;;;;;;;27.36;42.56;94786.06;5004989;28;9091;-60
2023/09/26 07:53:22;;;;;;;;;;;;;;;27.38;41.79;94783.56;5001578;28;8451;-60
2023/09/26 07:55:48;;;;;;;;;;;;;;;27.37;42.33;94777.28;5009548;28;7910;-60
2023/09/26 07:58:17;;;;;;;;;;;;;;;27.38;42.62;94775.25;5010499;28;7524;-61
2023/09/26 08:00:43;;;;;;;;;;;;;;;27.37;42.31;94768.97;5005127;28;9198;-61
2023/09/26 08:03:10;;;;;;;;;;;;;;;27.37;42.57;94774.50;5005493;28;8278;-61
2023/09/26 08:05:39;;;;;;;;;;;;;;;27.36;42.24;94773.00;5010347;28;9059;-60
2023/09/26 08:08:16;;;;;;;;;;;;;;;27.35;42.82;94770.72;5005970;28;7002;-61
2023/09/26 08:11:05;;;;;;;;;;;;;;;27.36;42.27;94773.00;5012530;28;8715;-61
2023/09/26 08:13:41;;;;;;;;;;;;;;;27.38;42.03;94770.47;4999765;28;7247;-60
2023/09/26 08:16:17;;;;;;;;;;;;;;;27.40;42.16;94767.22;5004023;28;7459;-60
2023/09/26 08:18:47;;;;;;;;;;;;;;;27.40;42.87;94778.25;5013001;28;7235;-60
2023/09/26 08:21:20;;;;;;;;;;;;;;;27.42;41.91;94772.97;5041971;28;7384;-60
2023/09/26 08:23:50;;;;;;;;;;;;;;;27.41;42.26;94771.44;5041194;28;7301;-61
2023/09/26 08:26:19;;;;;;;;;;;;;;;27.41;42.20;94769.44;5047051;28;7303;-60
2023/09/26 08:29:14;;;;;;;;;;;;;;;27.44;42.30;94775.97;5038904;28;7116;-60
2023/09/26 08:31:56;;;;;;;;;;;;;;;27.42;42.22;94772.97;5017339;28;7074;-61
2023/09/26 08:34:36;;;;;;;;;;;;;;;27.42;42.39;94779.25;5020419;28;7187;-60
2023/09/26 08:37:02;;;;;;;;;;;;;;;27.38;42.26;94778.75;5024118;28;9118;-60
2023/09/26 08:39:38;;;;;;;;;;;;;;;27.39;42.01;94779.50;5004733;28;7276;-60
2023/09/26 08:42:09;;;;;;;;;;;;;;;27.42;42.21;94781.25;5019444;28;7428;-61
2023/09/26 08:44:39;;;;;;;;;;;;;;;27.42;42.12;94787.53;5015053;28;7204;-65
2023/09/26 08:47:44;;;;;;;;;;;;;;;27.42;42.21;94786.78;5004108;28;7957;-64
2023/09/26 08:50:19;;;;;;;;;;;;;;;27.39;42.34;94783.03;4960715;28;6856;-64
2023/09/26 08:52:58;;;;;;;;;;;;;;;27.39;41.80;94783.03;4956889;28;7413;-65
2023/09/26 08:56:03;;;;;;;;;;;;;;;27.43;42.06;94777.97;4955336;28;9444;-64
2023/09/26 08:58:35;;;;;;;;;;;;;;;27.38;42.16;94773.22;4872967;29;7241;-64
2023/09/26 09:01:34;;;;;;;;;;;;;;;27.41;42.21;94777.72;4876029;29;7690;-64
2023/09/26 09:04:01;;;;;;;;;;;;;;;27.42;42.30;94782.00;4824104;29;6993;-65
2023/09/26 09:06:36;;;;;;;;;;;;;;;27.40;42.29;94770.72;4838547;29;7308;-64
2023/09/26 09:09:36;;;;;;;;;;;;;;;27.43;42.05;94772.44;4871026;29;9030;-64
2023/09/26 09:12:24;;;;;;;;;;;;;;;27.43;42.04;94768.94;4857891;29;7714;-64
2023/09/26 09:15:17;;;;;;;;;;;;;;;27.42;42.06;94770.97;4861568;29;7226;-64
2023/09/26 09:18:28;;;;;;;;;;;;;;;27.45;42.09;94780.97;4873584;29;7274;-65
2023/09/26 09:21:46;;;;;;;;;;;;;;;27.47;41.95;94778.44;4851323;29;7267;-65
2023/09/26 09:24:36;;;;;;;;;;;;;;;27.42;42.06;94768.19;4892001;29;7241;-65
2023/09/26 09:27:09;;;;;;;;;;;;;;;27.43;41.88;94769.69;4875963;29;7222;-64
2023/09/26 09:30:02;;;;;;;;;;;;;;;27.45;41.94;94772.69;4917487;28;7331;-63
2023/09/26 09:32:32;;;;;;;;;;;;;;;27.45;42.06;94772.69;4926798;28;7224;-64
2023/09/26 09:35:11;;;;;;;;;;;;;;;27.45;41.76;94767.16;4943069;28;7007;-64
2023/09/26 09:37:52;;;;;;;;;;;;;;;27.46;41.45;94773.44;4926881;29;7011;-64
2023/09/26 09:40:22;;;;;;;;;;;;;;;27.45;41.29;94771.91;4987827;28;7214;-64
2023/09/26 09:42:55;;;;;;;;;;;;;;;27.47;41.56;94763.91;4997604;28;8704;-64
2023/09/26 09:45:47;;;;;;;;;;;;;;;27.48;41.77;94763.38;4981509;28;8754;-64
2023/09/26 09:48:16;;;;;;;;;;;;;;;27.49;41.62;94764.13;4972877;28;7267;-64
2023/09/26 09:51:12;;;;;;;;;;;;;;;27.51;41.64;94767.13;4996253;28;7019;-64
2023/09/26 09:54:18;;;;;;;;;;;;;;;27.50;41.58;94754.56;4971798;28;7472;-64
2023/09/26 09:57:17;;;;;;;;;;;;;;;27.51;41.42;94747.78;4958002;28;6993;-63
2023/09/26 09:59:58;;;;;;;;;;;;;;;27.53;41.52;94753.53;5016707;28;9300;-63
2023/09/26 10:03:16;;;;;;;;;;;;;;;27.53;41.58;94748.03;5020266;28;9446;-63
2023/09/26 10:05:45;;;;;;;;;;;;;;;27.52;41.34;94754.78;4964810;28;7000;-63
2023/09/26 10:08:14;;;;;;;;;;;;;;;27.53;41.17;94748.03;4953463;28;7228;-63
2023/09/26 10:10:57;;;;;;;;;;;;;;;27.54;41.43;94741.97;4951661;28;9114;-63
2023/09/26 10:14:00;;;;;;;;;;;;;;;27.55;41.28;94745.50;4969708;28;7311;-63
2023/09/26 10:16:27;;;;;;;;;;;;;;;27.53;41.34;94745.97;4960713;28;7161;-63
2023/09/26 10:19:04;;;;;;;;;;;;;;;27.54;41.55;94744.72;4962978;28;8595;-63
2023/09/26 10:21:35;;;;;;;;;;;;;;;27.57;41.22;94740.94;4966295;28;9517;-63
2023/09/26 10:24:16;;;;;;;;;;;;;;;27.57;41.48;94740.94;4955845;28;9081;-63
2023/09/26 10:26:53;;;;;;;;;;;;;;;27.57;41.48;94743.72;4955948;28;7030;-63
2023/09/26 10:29:27;;;;;;;;;;;;;;;27.58;41.52;94734.13;4964365;28;7233;-63
2023/09/26 10:32:04;;;;;;;;;;;;;;;27.60;41.25;94736.38;4965210;28;7193;-63
2023/09/26 10:34:35;;;;;;;;;;;;;;;27.57;41.51;94735.41;4943190;28;7323;-63
2023/09/26 10:37:05;;;;;;;;;;;;;;;27.54;41.67;94727.41;4947902;29;7008;-63
2023/09/26 10:39:40;;;;;;;;;;;;;;;27.57;41.88;94737.44;4931986;29;6980;-63
2023/09/26 10:42:23;;;;;;;;;;;;;;;27.58;42.25;94739.66;5018029;28;7609;-63
2023/09/26 10:45:01;;;;;;;;;;;;;;;27.56;41.74;94731.16;5035422;28;9352;-63
2023/09/26 10:47:27;;;;;;;;;;;;;;;27.56;41.75;94735.91;5057529;28;7506;-63
2023/09/26 10:49:57;;;;;;;;;;;;;;;27.56;41.75;94735.91;5022655;28;7053;-63
2023/09/26 10:52:24;;;;;;;;;;;;;;;27.57;41.53;94746.47;5029750;28;9204;-63
2023/09/26 10:54:54;;;;;;;;;;;;;;;27.62;41.94;94740.13;5038446;28;9212;-63
2023/09/26 10:57:23;;;;;;;;;;;;;;;27.61;41.50;94735.88;5027666;28;6976;-63
2023/09/26 10:59:49;;;;;;;;;;;;;;;27.64;42.00;94740.38;5046058;28;7012;-63
2023/09/26 11:02:24;;;;;;;;;;;;;;;27.62;41.89;94740.13;5060129;28;7083;-63
2023/09/26 11:04:50;;;;;;;;;;;;;;;27.67;41.65;94740.59;5046123;28;7195;-61
2023/09/26 11:07:19;;;;;;;;;;;;;;;27.66;41.55;94744.63;5034329;28;9209;-62
2023/09/26 11:09:45;;;;;;;;;;;;;;;27.66;41.62;94728.81;5044242;28;8882;-61
2023/09/26 11:12:13;;;;;;;;;;;;;;;27.70;41.88;94734.03;5043341;28;7073;-61
2023/09/26 11:14:40;;;;;;;;;;;;;;;27.70;41.90;94737.56;5030010;28;9848;-61
2023/09/26 11:17:11;;;;;;;;;;;;;;;27.72;41.89;94737.03;5041188;28;7044;-61
2023/09/26 11:19:37;;;;;;;;;;;;;;;27.69;41.72;94727.03;5026486;28;6987;-61
2023/09/26 11:22:06;;;;;;;;;;;;;;;27.72;41.97;94728.75;5044167;28;7108;-62
2023/09/26 11:24:32;;;;;;;;;;;;;;;27.69;41.73;94727.75;5017303;28;7003;-61
2023/09/26 11:27:04;;;;;;;;;;;;;;;27.71;41.32;94725.22;5027185;28;7739;-61
2023/09/26 11:29:34;;;;;;;;;;;;;;;27.71;41.97;94730.75;5040032;28;7330;-61
2023/09/26 11:32:08;;;;;;;;;;;;;;;27.73;42.33;94728.22;5060596;28;7229;-61
2023/09/26 11:34:35;;;;;;;;;;;;;;;27.73;41.77;94716.44;5046590;28;9165;-61
2023/09/26 11:37:01;;;;;;;;;;;;;;;27.79;42.17;94725.41;5058336;28;6911;-61
2023/09/26 11:39:27;;;;;;;;;;;;;;;27.75;41.89;94713.91;5047354;28;7109;-61
2023/09/26 11:42:06;;;;;;;;;;;;;;;27.76;41.76;94709.84;5044102;28;7032;-61
2023/09/26 11:44:35;;;;;;;;;;;;;;;27.77;42.21;94716.91;5051388;28;7261;-61
2023/09/26 11:47:08;;;;;;;;;;;;;;;27.76;42.02;94716.16;5070928;28;7230;-61
2023/09/26 11:49:38;;;;;;;;;;;;;;;27.76;41.84;94713.38;5047131;28;7488;-60
2023/09/26 11:52:05;;;;;;;;;;;;;;;27.75;42.26;94716.66;5047631;28;9428;-61
2023/09/26 11:54:31;;;;;;;;;;;;;;;27.73;42.12;94703.34;5047530;28;7034;-60
2023/09/26 11:56:57;;;;;;;;;;;;;;;27.76;42.27;94705.09;5049781;28;8779;-61
2023/09/26 11:59:24;;;;;;;;;;;;;;;27.72;42.05;94701.88;5041160;28;7200;-60
2023/09/26 12:01:58;;;;;;;;;;;;;;;27.73;42.10;94706.09;5048521;28;9453;-61
2023/09/26 12:04:29;;;;;;;;;;;;;;;27.73;42.56;94697.09;5051462;28;7086;-60
2023/09/26 12:06:57;;;;;;;;;;;;;;;27.77;42.34;94700.31;5042868;28;7282;-60
2023/09/26 12:09:29;;;;;;;;;;;;;;;27.79;42.20;94703.31;5054437;28;7308;-61
2023/09/26 12:12:01;;;;;;;;;;;;;;;27.79;42.14;94692.25;5069127;28;7488;-61
2023/09/26 12:14:27;;;;;;;;;;;;;;;27.81;42.26;94684.94;5044033;28;7636;-65
2023/09/26 12:16:53;;;;;;;;;;;;;;;27.82;42.30;94689.19;5070102;28;7171;-65
2023/09/26 12:19:23;;;;;;;;;;;;;;;27.84;42.24;94681.13;5039715;28;9059;-65
2023/09/26 12:21:53;;;;;;;;;;;;;;;27.85;42.27;94685.41;5039805;28;6966;-65
2023/09/26 12:24:20;;;;;;;;;;;;;;;27.85;42.50;94682.63;5038798;28;7284;-64
2023/09/26 12:26:48;;;;;;;;;;;;;;;27.91;41.84;94682.56;5046478;28;7122;-64
2023/09/26 12:29:17;;;;;;;;;;;;;;;27.93;41.92;94685.56;5038012;28;9308;-65
2023/09/26 12:31:45;;;;;;;;;;;;;;;27.96;41.82;94687.28;5074179;28;8437;-64
2023/09/26 12:34:13;;;;;;;;;;;;;;;27.97;41.80;94681.25;5041685;28;9411;-64
2023/09/26 12:36:39;;;;;;;;;;;;;;;27.98;41.78;94680.00;5054695;28;9295;-64
2023/09/26 12:39:07;;;;;;;;;;;;;;;28.00;42.14;94677.47;5052567;28;7222;-64
2023/09/26 12:41:43;;;;;;;;;;;;;;;28.02;41.71;94676.94;5040821;28;7739;-64
2023/09/26 12:44:09;;;;;;;;;;;;;;;28.03;42.24;94678.44;5043824;28;7146;-65
2023/09/26 12:46:35;;;;;;;;;;;;;;;28.04;42.06;94666.09;5058079;28;8225;-65
2023/09/26 12:49:01;;;;;;;;;;;;;;;28.06;41.60;94682.91;5041372;28;7004;-65
2023/09/26 12:51:30;;;;;;;;;;;;;;;28.06;41.75;94671.84;5047722;28;8468;-65
2023/09/26 12:54:08;;;;;;;;;;;;;;;28.06;42.03;94672.63;5046552;28;6867;-65
2023/09/26 12:56:36;;;;;;;;;;;;;;;28.08;41.80;94664.53;5042318;28;9376;-65
2023/09/26 12:59:51;;;;;;;;;;;;;;;28.13;41.73;94671.28;5045161;28;9364;-65
2023/09/26 13:02:20;;;;;;;;;;;;;;;28.16;41.77;94664.72;4994511;28;8061;-64
2023/09/26 13:04:47;;;;;;;;;;;;;;;28.17;42.04;94663.44;5010645;28;7170;-64
2023/09/26 13:07:25;;;;;;;;;;;;;;;28.19;42.42;94652.59;4992479;28;8723;-64
2023/09/26 13:10:31;;;;;;;;;;;;;;;28.20;41.99;94654.09;5006714;28;7126;-64
2023/09/26 13:13:14;;;;;;;;;;;;;;;28.21;42.27;94650.81;4955465;28;6994;-64
2023/09/26 13:15:40;;;;;;;;;;;;;;;28.25;41.91;94656.06;4955502;28;9077;-63
2023/09/26 13:18:19;;;;;;;;;;;;;;;28.26;41.52;94657.53;4958710;28;7196;-64
2023/09/26 13:21:03;;;;;;;;;;;;;;;28.26;41.88;94646.47;4932310;28;9101;-64
2023/09/26 13:23:46;;;;;;;;;;;;;;;28.27;41.60;94657.00;4932032;28;6998;-62
2023/09/26 13:26:19;;;;;;;;;;;;;;;28.27;41.94;94656.28;4953231;28;7248;-62
2023/09/26 13:28:45;;;;;;;;;;;;;;;28.30;41.91;94649.69;4937023;28;7079;-62
2023/09/26 13:31:26;;;;;;;;;;;;;;;28.33;41.26;94651.41;4955673;28;8927;-62
2023/09/26 13:34:22;;;;;;;;;;;;;;;28.40;40.82;94641.78;4937201;28;9147;-62
2023/09/26 13:36:48;;;;;;;;;;;;;;;28.43;41.72;94647.00;4939499;28;8624;-63
2023/09/26 13:39:15;;;;;;;;;;;;;;;28.45;41.45;94638.94;4947201;28;7301;-62